This is the latest recevied weather packets stored in our database for station/object OE6ACM-14. If no packets are shown the sender has not sent any weather packets the latest 10 day(s).
| Time | Temp. | Humidity | Pressure | Rain* | Wind** | Luminosity | Snow |
|---|---|---|---|---|---|---|---|
| 1777475865 | 19.44° C | 38% | 930.1 hPa | - | - | - | - |
| 1777475565 | 19.44° C | 38% | 930.2 hPa | - | - | - | - |
| 1777475265 | 18.89° C | 38% | 930.2 hPa | - | - | - | - |
| 1777474965 | 17.78° C | 41% | 930.2 hPa | - | - | - | - |
| 1777474665 | 17.22° C | 43% | 930.4 hPa | - | - | - | - |
| 1777474365 | 16.67° C | 42% | 930.4 hPa | - | - | - | - |
| 1777474065 | 16.67° C | 42% | 930.4 hPa | - | - | - | - |
| 1777473765 | 17.78° C | 39% | 930.4 hPa | - | - | - | - |
| 1777473465 | 17.22° C | 42% | 930.5 hPa | - | - | - | - |
| 1777473165 | 17.22° C | 41% | 930.6 hPa | - | - | - | - |
| 1777472865 | 18.33° C | 41% | 930.5 hPa | - | - | - | - |
| 1777472565 | 17.22° C | 42% | 930.6 hPa | - | - | - | - |
| 1777472265 | 18.33° C | 39% | 930.6 hPa | - | - | - | - |
| 1777471965 | 18.89° C | 39% | 930.5 hPa | - | - | - | - |
| 1777471665 | 18.33° C | 41% | 930.6 hPa | - | - | - | - |
| 1777471365 | 18.33° C | 41% | 930.6 hPa | - | - | - | - |
| 1777471065 | 17.22° C | 44% | 930.7 hPa | - | - | - | - |
| 1777470765 | 15.56° C | 47% | 930.8 hPa | - | - | - | - |
| 1777470465 | 15° C | 46% | 930.8 hPa | - | - | - | - |
| 1777470165 | 15.56° C | 45% | 930.8 hPa | - | - | - | - |
| 1777469865 | 16.11° C | 44% | 930.8 hPa | - | - | - | - |
| 1777469565 | 16.11° C | 44% | 930.8 hPa | - | - | - | - |
| 1777469265 | 16.11° C | 43% | 930.8 hPa | - | - | - | - |
| 1777468965 | 16.11° C | 45% | 930.9 hPa | - | - | - | - |
| 1777468665 | 16.11° C | 42% | 930.9 hPa | - | - | - | - |
* Rain since midnight (hover to see other rain measurements)
** Current wind speed in m/s (hover to see current wind gust speed)